アンマン の空港の天気 - METARとTAF

クィーンアリア国際空港 ( OJAI / AMM ) - ヨルダン アンマン
飛行場実況気象(Metar)
観測時間05/27 00:00 EEST (05/26 21:00 UTC)
風向・風速静穏 0m/s
視程5000m
天気現象煙霧
なし
気温18℃
湿度45%
気圧1016hPa
METAROJAI 262100Z 00000KT 5000 HZ NSC 18/06 Q1016 NOSIG
過去の天気等 Google飛行場航空写真 Wunderground天気予報

過去48時間のMETAR

飛行場予報(TAF)
発表時間: 5/27 01:09 EEST (5/26 22:09 UTC)
予報対象時間: 27日3時 EEST ~ 28日9時 EEST
風向・風速西北西 5m/s
視程5000m
天気現象煙霧
なし
27日15時 EEST から 確率 40% で
風向・風速西 9m/s
視程4000m
天気現象風塵
TAF OJAI 262209Z 2700/2806 29010KT 5000 HZ NSC
TEMPO
PROB40 2712/2718 26018KT 4000 DU